sensor_id;sensor_type;location;lat;lon;timestamp;P1;durP1;ratioP1;P2;durP2;ratioP2
20443;SDS011;10381;53.730;10.010;2024-03-08T00:00:35;39.23;;;15.23;;
20443;SDS011;10381;53.730;10.010;2024-03-08T00:04:37;41.63;;;14.65;;
20443;SDS011;10381;53.730;10.010;2024-03-08T00:08:37;36.63;;;15.07;;
20443;SDS011;10381;53.730;10.010;2024-03-08T00:12:40;35.07;;;14.93;;
20443;SDS011;10381;53.730;10.010;2024-03-08T00:16:42;38.85;;;14.52;;
20443;SDS011;10381;53.730;10.010;2024-03-08T00:20:43;31.92;;;14.63;;
20443;SDS011;10381;53.730;10.010;2024-03-08T00:24:44;28.42;;;13.07;;
20443;SDS011;10381;53.730;10.010;2024-03-08T00:28:45;36.45;;;16.50;;
20443;SDS011;10381;53.730;10.010;2024-03-08T00:32:45;29.07;;;12.93;;
20443;SDS011;10381;53.730;10.010;2024-03-08T00:36:45;23.52;;;13.05;;
20443;SDS011;10381;53.730;10.010;2024-03-08T00:40:46;30.52;;;14.88;;
20443;SDS011;10381;53.730;10.010;2024-03-08T00:44:47;27.38;;;13.75;;
20443;SDS011;10381;53.730;10.010;2024-03-08T00:48:51;37.38;;;15.23;;
20443;SDS011;10381;53.730;10.010;2024-03-08T00:52:51;27.52;;;14.40;;
20443;SDS011;10381;53.730;10.010;2024-03-08T00:56:51;29.57;;;13.93;;
20443;SDS011;10381;53.730;10.010;2024-03-08T01:00:51;26.50;;;12.80;;
20443;SDS011;10381;53.730;10.010;2024-03-08T01:04:52;27.33;;;14.13;;
20443;SDS011;10381;53.730;10.010;2024-03-08T01:08:53;39.10;;;12.15;;
20443;SDS011;10381;53.730;10.010;2024-03-08T01:12:54;34.78;;;14.32;;
20443;SDS011;10381;53.730;10.010;2024-03-08T01:16:56;41.65;;;15.77;;
20443;SDS011;10381;53.730;10.010;2024-03-08T01:20:57;28.75;;;13.75;;
20443;SDS011;10381;53.730;10.010;2024-03-08T01:24:57;44.75;;;15.07;;
20443;SDS011;10381;53.730;10.010;2024-03-08T01:28:57;32.67;;;14.48;;
20443;SDS011;10381;53.730;10.010;2024-03-08T01:32:59;33.83;;;13.48;;
20443;SDS011;10381;53.730;10.010;2024-03-08T01:36:59;44.15;;;15.13;;
20443;SDS011;10381;53.730;10.010;2024-03-08T01:41:00;37.13;;;14.55;;
20443;SDS011;10381;53.730;10.010;2024-03-08T01:45:01;28.73;;;13.30;;
20443;SDS011;10381;53.730;10.010;2024-03-08T01:49:01;55.95;;;16.70;;
20443;SDS011;10381;53.730;10.010;2024-03-08T01:53:03;35.67;;;14.02;;
20443;SDS011;10381;53.730;10.010;2024-03-08T01:57:04;30.90;;;12.40;;
20443;SDS011;10381;53.730;10.010;2024-03-08T02:01:05;28.15;;;13.02;;
20443;SDS011;10381;53.730;10.010;2024-03-08T02:05:06;30.05;;;12.63;;
20443;SDS011;10381;53.730;10.010;2024-03-08T02:09:06;32.15;;;13.40;;
20443;SDS011;10381;53.730;10.010;2024-03-08T02:13:07;16.35;;;10.15;;
20443;SDS011;10381;53.730;10.010;2024-03-08T02:17:08;38.88;;;12.93;;
20443;SDS011;10381;53.730;10.010;2024-03-08T02:21:08;26.30;;;12.20;;
20443;SDS011;10381;53.730;10.010;2024-03-08T02:25:08;26.05;;;12.18;;
20443;SDS011;10381;53.730;10.010;2024-03-08T02:29:09;34.45;;;14.10;;
20443;SDS011;10381;53.730;10.010;2024-03-08T02:33:09;31.95;;;12.95;;
20443;SDS011;10381;53.730;10.010;2024-03-08T02:37:10;38.53;;;14.93;;
20443;SDS011;10381;53.730;10.010;2024-03-08T02:41:10;23.93;;;11.80;;
20443;SDS011;10381;53.730;10.010;2024-03-08T02:45:10;24.03;;;12.07;;
20443;SDS011;10381;53.730;10.010;2024-03-08T02:49:11;22.05;;;10.90;;
20443;SDS011;10381;53.730;10.010;2024-03-08T02:53:11;23.63;;;11.55;;
20443;SDS011;10381;53.730;10.010;2024-03-08T02:57:12;22.58;;;12.07;;
20443;SDS011;10381;53.730;10.010;2024-03-08T03:01:14;21.73;;;11.85;;
20443;SDS011;10381;53.730;10.010;2024-03-08T03:05:16;23.27;;;13.20;;
20443;SDS011;10381;53.730;10.010;2024-03-08T03:09:16;24.10;;;12.57;;
20443;SDS011;10381;53.730;10.010;2024-03-08T03:13:23;22.90;;;11.25;;
20443;SDS011;10381;53.730;10.010;2024-03-08T03:17:23;32.08;;;13.15;;
20443;SDS011;10381;53.730;10.010;2024-03-08T03:21:24;28.55;;;11.50;;
20443;SDS011;10381;53.730;10.010;2024-03-08T03:25:24;26.77;;;10.70;;
20443;SDS011;10381;53.730;10.010;2024-03-08T03:29:35;20.23;;;11.13;;
20443;SDS011;10381;53.730;10.010;2024-03-08T03:33:35;22.52;;;11.75;;
20443;SDS011;10381;53.730;10.010;2024-03-08T03:37:36;26.05;;;12.27;;
20443;SDS011;10381;53.730;10.010;2024-03-08T03:41:39;31.02;;;11.95;;
20443;SDS011;10381;53.730;10.010;2024-03-08T03:45:39;24.58;;;12.60;;
20443;SDS011;10381;53.730;10.010;2024-03-08T03:49:41;20.50;;;11.95;;
20443;SDS011;10381;53.730;10.010;2024-03-08T03:53:42;28.73;;;11.52;;
20443;SDS011;10381;53.730;10.010;2024-03-08T03:57:42;34.07;;;13.13;;
20443;SDS011;10381;53.730;10.010;2024-03-08T04:01:45;27.90;;;13.57;;
20443;SDS011;10381;53.730;10.010;2024-03-08T04:05:46;26.33;;;10.97;;
20443;SDS011;10381;53.730;10.010;2024-03-08T04:09:46;27.50;;;12.52;;
20443;SDS011;10381;53.730;10.010;2024-03-08T04:13:47;31.60;;;12.77;;
20443;SDS011;10381;53.730;10.010;2024-03-08T04:17:47;22.07;;;10.43;;
20443;SDS011;10381;53.730;10.010;2024-03-08T04:21:47;25.37;;;11.37;;
20443;SDS011;10381;53.730;10.010;2024-03-08T04:25:47;21.57;;;10.97;;
20443;SDS011;10381;53.730;10.010;2024-03-08T04:29:48;20.20;;;12.70;;
20443;SDS011;10381;53.730;10.010;2024-03-08T04:33:48;27.27;;;11.00;;
20443;SDS011;10381;53.730;10.010;2024-03-08T04:37:48;27.83;;;10.83;;
20443;SDS011;10381;53.730;10.010;2024-03-08T04:41:49;27.43;;;11.23;;
20443;SDS011;10381;53.730;10.010;2024-03-08T04:45:49;38.55;;;12.85;;
20443;SDS011;10381;53.730;10.010;2024-03-08T04:49:50;21.80;;;11.57;;
20443;SDS011;10381;53.730;10.010;2024-03-08T04:53:50;29.33;;;12.23;;
20443;SDS011;10381;53.730;10.010;2024-03-08T04:57:50;26.25;;;10.23;;
20443;SDS011;10381;53.730;10.010;2024-03-08T05:01:51;25.08;;;12.13;;
20443;SDS011;10381;53.730;10.010;2024-03-08T05:05:51;22.77;;;11.57;;
20443;SDS011;10381;53.730;10.010;2024-03-08T05:09:51;31.23;;;13.40;;
20443;SDS011;10381;53.730;10.010;2024-03-08T05:13:52;35.73;;;13.57;;
20443;SDS011;10381;53.730;10.010;2024-03-08T05:17:53;30.97;;;13.87;;
20443;SDS011;10381;53.730;10.010;2024-03-08T05:21:56;39.10;;;14.65;;
20443;SDS011;10381;53.730;10.010;2024-03-08T05:25:56;40.63;;;13.83;;
20443;SDS011;10381;53.730;10.010;2024-03-08T05:29:57;21.20;;;11.90;;
20443;SDS011;10381;53.730;10.010;2024-03-08T05:33:57;39.40;;;15.23;;
20443;SDS011;10381;53.730;10.010;2024-03-08T05:37:58;33.70;;;13.45;;
20443;SDS011;10381;53.730;10.010;2024-03-08T05:41:58;38.97;;;15.00;;
20443;SDS011;10381;53.730;10.010;2024-03-08T05:45:58;35.57;;;12.83;;
20443;SDS011;10381;53.730;10.010;2024-03-08T05:49:59;41.93;;;14.90;;
20443;SDS011;10381;53.730;10.010;2024-03-08T05:54:02;34.15;;;14.18;;
20443;SDS011;10381;53.730;10.010;2024-03-08T05:58:05;32.92;;;14.00;;
20443;SDS011;10381;53.730;10.010;2024-03-08T06:02:07;39.63;;;14.18;;
20443;SDS011;10381;53.730;10.010;2024-03-08T06:06:08;51.22;;;14.65;;
20443;SDS011;10381;53.730;10.010;2024-03-08T06:10:09;37.38;;;14.38;;
20443;SDS011;10381;53.730;10.010;2024-03-08T06:14:11;46.15;;;16.15;;
20443;SDS011;10381;53.730;10.010;2024-03-08T06:18:12;36.10;;;14.48;;
20443;SDS011;10381;53.730;10.010;2024-03-08T06:22:12;37.40;;;15.47;;
20443;SDS011;10381;53.730;10.010;2024-03-08T06:26:13;39.47;;;14.50;;
20443;SDS011;10381;53.730;10.010;2024-03-08T06:30:14;35.00;;;13.97;;
20443;SDS011;10381;53.730;10.010;2024-03-08T06:34:15;34.42;;;15.38;;
20443;SDS011;10381;53.730;10.010;2024-03-08T06:38:17;39.33;;;15.15;;
20443;SDS011;10381;53.730;10.010;2024-03-08T06:42:19;34.58;;;15.32;;
20443;SDS011;10381;53.730;10.010;2024-03-08T06:46:19;45.57;;;14.80;;
20443;SDS011;10381;53.730;10.010;2024-03-08T06:50:20;39.65;;;15.00;;
20443;SDS011;10381;53.730;10.010;2024-03-08T06:54:20;50.90;;;18.77;;
20443;SDS011;10381;53.730;10.010;2024-03-08T06:58:21;38.47;;;14.68;;
20443;SDS011;10381;53.730;10.010;2024-03-08T07:02:21;49.17;;;17.63;;
20443;SDS011;10381;53.730;10.010;2024-03-08T07:06:24;39.15;;;16.15;;
20443;SDS011;10381;53.730;10.010;2024-03-08T07:10:25;31.67;;;16.08;;
20443;SDS011;10381;53.730;10.010;2024-03-08T07:14:25;48.10;;;16.73;;
20443;SDS011;10381;53.730;10.010;2024-03-08T07:18:25;38.47;;;16.67;;
20443;SDS011;10381;53.730;10.010;2024-03-08T07:22:25;26.20;;;16.00;;
20443;SDS011;10381;53.730;10.010;2024-03-08T07:26:26;39.07;;;16.57;;
20443;SDS011;10381;53.730;10.010;2024-03-08T07:30:27;34.25;;;15.85;;
20443;SDS011;10381;53.730;10.010;2024-03-08T07:34:45;41.08;;;17.63;;
20443;SDS011;10381;53.730;10.010;2024-03-08T07:38:45;31.97;;;15.67;;
20443;SDS011;10381;53.730;10.010;2024-03-08T07:42:47;41.92;;;16.52;;
20443;SDS011;10381;53.730;10.010;2024-03-08T07:46:47;34.83;;;16.48;;
20443;SDS011;10381;53.730;10.010;2024-03-08T07:50:47;42.10;;;17.70;;
20443;SDS011;10381;53.730;10.010;2024-03-08T07:54:51;38.70;;;17.23;;
20443;SDS011;10381;53.730;10.010;2024-03-08T07:58:51;31.27;;;17.10;;
20443;SDS011;10381;53.730;10.010;2024-03-08T08:02:53;35.90;;;16.70;;
20443;SDS011;10381;53.730;10.010;2024-03-08T08:06:54;38.05;;;17.85;;
20443;SDS011;10381;53.730;10.010;2024-03-08T08:10:55;33.67;;;17.27;;
20443;SDS011;10381;53.730;10.010;2024-03-08T08:14:57;38.43;;;17.77;;
20443;SDS011;10381;53.730;10.010;2024-03-08T08:18:58;41.05;;;18.00;;
20443;SDS011;10381;53.730;10.010;2024-03-08T08:22:59;39.60;;;19.85;;
20443;SDS011;10381;53.730;10.010;2024-03-08T08:26:59;38.70;;;19.20;;
20443;SDS011;10381;53.730;10.010;2024-03-08T08:31:00;36.22;;;19.63;;
20443;SDS011;10381;53.730;10.010;2024-03-08T08:35:01;40.10;;;20.10;;
20443;SDS011;10381;53.730;10.010;2024-03-08T08:39:02;50.00;;;20.90;;
20443;SDS011;10381;53.730;10.010;2024-03-08T08:43:03;59.63;;;23.83;;
20443;SDS011;10381;53.730;10.010;2024-03-08T08:47:04;55.58;;;21.83;;
20443;SDS011;10381;53.730;10.010;2024-03-08T08:51:04;45.90;;;21.75;;
20443;SDS011;10381;53.730;10.010;2024-03-08T08:55:06;59.80;;;24.45;;
20443;SDS011;10381;53.730;10.010;2024-03-08T08:59:06;43.47;;;21.48;;
20443;SDS011;10381;53.730;10.010;2024-03-08T09:03:07;46.78;;;24.05;;
20443;SDS011;10381;53.730;10.010;2024-03-08T09:07:07;53.33;;;22.67;;
20443;SDS011;10381;53.730;10.010;2024-03-08T09:11:08;66.50;;;24.48;;
20443;SDS011;10381;53.730;10.010;2024-03-08T09:15:09;48.67;;;24.05;;
20443;SDS011;10381;53.730;10.010;2024-03-08T09:19:11;66.40;;;27.00;;
20443;SDS011;10381;53.730;10.010;2024-03-08T09:23:11;55.50;;;25.03;;
20443;SDS011;10381;53.730;10.010;2024-03-08T09:27:11;58.95;;;28.48;;
20443;SDS011;10381;53.730;10.010;2024-03-08T09:31:12;56.35;;;28.05;;
20443;SDS011;10381;53.730;10.010;2024-03-08T09:35:12;62.35;;;26.30;;
20443;SDS011;10381;53.730;10.010;2024-03-08T09:39:12;56.28;;;26.30;;
20443;SDS011;10381;53.730;10.010;2024-03-08T09:43:16;66.60;;;27.17;;
20443;SDS011;10381;53.730;10.010;2024-03-08T09:47:18;57.03;;;27.95;;
20443;SDS011;10381;53.730;10.010;2024-03-08T09:51:24;61.67;;;28.13;;
20443;SDS011;10381;53.730;10.010;2024-03-08T09:55:28;59.80;;;25.92;;
20443;SDS011;10381;53.730;10.010;2024-03-08T09:59:33;43.25;;;22.52;;
20443;SDS011;10381;53.730;10.010;2024-03-08T10:03:37;45.42;;;23.25;;
20443;SDS011;10381;53.730;10.010;2024-03-08T10:07:37;38.58;;;21.80;;
20443;SDS011;10381;53.730;10.010;2024-03-08T10:11:37;51.50;;;22.00;;
20443;SDS011;10381;53.730;10.010;2024-03-08T10:15:39;29.63;;;19.08;;
20443;SDS011;10381;53.730;10.010;2024-03-08T10:19:49;43.65;;;22.17;;
20443;SDS011;10381;53.730;10.010;2024-03-08T10:23:49;40.38;;;22.50;;
20443;SDS011;10381;53.730;10.010;2024-03-08T10:27:50;46.87;;;22.30;;
20443;SDS011;10381;53.730;10.010;2024-03-08T10:31:50;36.90;;;22.25;;
20443;SDS011;10381;53.730;10.010;2024-03-08T10:35:51;47.92;;;23.35;;
20443;SDS011;10381;53.730;10.010;2024-03-08T10:39:58;37.00;;;22.15;;
20443;SDS011;10381;53.730;10.010;2024-03-08T10:44:19;39.72;;;21.25;;
20443;SDS011;10381;53.730;10.010;2024-03-08T10:48:44;32.63;;;20.08;;
20443;SDS011;10381;53.730;10.010;2024-03-08T10:52:45;41.90;;;24.25;;
20443;SDS011;10381;53.730;10.010;2024-03-08T10:56:45;31.42;;;21.02;;
20443;SDS011;10381;53.730;10.010;2024-03-08T11:00:48;40.83;;;21.15;;
20443;SDS011;10381;53.730;10.010;2024-03-08T11:04:53;46.45;;;20.23;;
20443;SDS011;10381;53.730;10.010;2024-03-08T11:08:56;35.53;;;20.40;;
20443;SDS011;10381;53.730;10.010;2024-03-08T11:12:58;39.78;;;22.17;;
20443;SDS011;10381;53.730;10.010;2024-03-08T11:16:58;40.80;;;21.93;;
20443;SDS011;10381;53.730;10.010;2024-03-08T11:20:58;43.57;;;22.07;;
20443;SDS011;10381;53.730;10.010;2024-03-08T11:25:05;42.10;;;21.67;;
20443;SDS011;10381;53.730;10.010;2024-03-08T11:33:28;38.08;;;23.25;;
20443;SDS011;10381;53.730;10.010;2024-03-08T11:37:33;46.50;;;22.90;;
20443;SDS011;10381;53.730;10.010;2024-03-08T11:41:36;36.05;;;23.27;;
20443;SDS011;10381;53.730;10.010;2024-03-08T11:45:38;43.40;;;22.40;;
20443;SDS011;10381;53.730;10.010;2024-03-08T11:49:41;36.38;;;21.70;;
20443;SDS011;10381;53.730;10.010;2024-03-08T11:53:44;37.60;;;22.98;;
20443;SDS011;10381;53.730;10.010;2024-03-08T11:57:45;34.83;;;19.85;;
20443;SDS011;10381;53.730;10.010;2024-03-08T12:01:57;34.03;;;20.17;;
20443;SDS011;10381;53.730;10.010;2024-03-08T12:06:05;32.67;;;18.60;;
20443;SDS011;10381;53.730;10.010;2024-03-08T12:14:18;31.30;;;20.48;;
20443;SDS011;10381;53.730;10.010;2024-03-08T12:18:18;25.67;;;17.60;;
20443;SDS011;10381;53.730;10.010;2024-03-08T12:22:19;27.27;;;15.53;;
20443;SDS011;10381;53.730;10.010;2024-03-08T12:26:24;34.75;;;13.27;;
20443;SDS011;10381;53.730;10.010;2024-03-08T12:30:26;32.47;;;13.75;;
20443;SDS011;10381;53.730;10.010;2024-03-08T12:34:27;27.10;;;13.07;;
20443;SDS011;10381;53.730;10.010;2024-03-08T12:38:28;27.00;;;13.40;;
20443;SDS011;10381;53.730;10.010;2024-03-08T12:42:28;20.50;;;12.52;;
20443;SDS011;10381;53.730;10.010;2024-03-08T12:46:31;26.38;;;12.80;;
20443;SDS011;10381;53.730;10.010;2024-03-08T12:50:32;23.05;;;12.40;;
20443;SDS011;10381;53.730;10.010;2024-03-08T12:54:32;23.90;;;11.57;;
20443;SDS011;10381;53.730;10.010;2024-03-08T12:58:34;24.88;;;13.93;;
20443;SDS011;10381;53.730;10.010;2024-03-08T13:02:42;26.42;;;12.48;;
20443;SDS011;10381;53.730;10.010;2024-03-08T13:06:42;24.57;;;12.53;;
20443;SDS011;10381;53.730;10.010;2024-03-08T13:10:43;22.02;;;11.95;;
20443;SDS011;10381;53.730;10.010;2024-03-08T13:14:43;23.13;;;12.43;;
20443;SDS011;10381;53.730;10.010;2024-03-08T13:18:43;24.80;;;11.30;;
20443;SDS011;10381;53.730;10.010;2024-03-08T13:22:44;33.65;;;12.88;;
20443;SDS011;10381;53.730;10.010;2024-03-08T13:26:45;24.52;;;11.82;;
20443;SDS011;10381;53.730;10.010;2024-03-08T13:30:47;26.60;;;11.82;;
20443;SDS011;10381;53.730;10.010;2024-03-08T13:34:48;20.10;;;11.93;;
20443;SDS011;10381;53.730;10.010;2024-03-08T13:38:48;26.77;;;12.43;;
20443;SDS011;10381;53.730;10.010;2024-03-08T13:42:49;23.50;;;12.18;;
20443;SDS011;10381;53.730;10.010;2024-03-08T13:46:49;23.23;;;12.02;;
20443;SDS011;10381;53.730;10.010;2024-03-08T13:50:51;24.88;;;11.57;;
20443;SDS011;10381;53.730;10.010;2024-03-08T13:54:51;19.98;;;12.27;;
20443;SDS011;10381;53.730;10.010;2024-03-08T13:58:52;28.00;;;12.83;;
20443;SDS011;10381;53.730;10.010;2024-03-08T14:02:52;25.80;;;12.20;;
20443;SDS011;10381;53.730;10.010;2024-03-08T14:06:53;19.88;;;12.55;;
20443;SDS011;10381;53.730;10.010;2024-03-08T14:11:03;23.85;;;13.40;;
20443;SDS011;10381;53.730;10.010;2024-03-08T14:15:12;22.00;;;11.10;;
20443;SDS011;10381;53.730;10.010;2024-03-08T14:19:12;25.00;;;12.40;;
20443;SDS011;10381;53.730;10.010;2024-03-08T14:23:14;23.00;;;11.68;;
20443;SDS011;10381;53.730;10.010;2024-03-08T14:27:14;22.50;;;11.53;;
20443;SDS011;10381;53.730;10.010;2024-03-08T14:31:17;23.50;;;11.38;;
20443;SDS011;10381;53.730;10.010;2024-03-08T14:35:18;27.15;;;11.55;;
20443;SDS011;10381;53.730;10.010;2024-03-08T14:39:20;20.73;;;12.75;;
20443;SDS011;10381;53.730;10.010;2024-03-08T14:43:22;22.50;;;11.55;;
20443;SDS011;10381;53.730;10.010;2024-03-08T14:47:22;21.65;;;12.18;;
20443;SDS011;10381;53.730;10.010;2024-03-08T14:51:22;21.00;;;11.07;;
20443;SDS011;10381;53.730;10.010;2024-03-08T14:55:26;22.63;;;12.30;;
20443;SDS011;10381;53.730;10.010;2024-03-08T14:59:26;31.77;;;12.67;;
20443;SDS011;10381;53.730;10.010;2024-03-08T15:03:29;23.00;;;12.50;;
20443;SDS011;10381;53.730;10.010;2024-03-08T15:07:29;24.90;;;12.93;;
20443;SDS011;10381;53.730;10.010;2024-03-08T15:11:30;23.80;;;12.25;;
20443;SDS011;10381;53.730;10.010;2024-03-08T15:15:31;26.07;;;12.27;;
20443;SDS011;10381;53.730;10.010;2024-03-08T15:19:32;43.67;;;13.30;;
20443;SDS011;10381;53.730;10.010;2024-03-08T15:23:36;31.85;;;12.68;;
20443;SDS011;10381;53.730;10.010;2024-03-08T15:27:37;23.08;;;10.95;;
20443;SDS011;10381;53.730;10.010;2024-03-08T15:31:40;21.52;;;12.48;;
20443;SDS011;10381;53.730;10.010;2024-03-08T15:35:43;21.88;;;11.98;;
20443;SDS011;10381;53.730;10.010;2024-03-08T15:39:48;33.17;;;13.18;;
20443;SDS011;10381;53.730;10.010;2024-03-08T15:43:49;25.67;;;12.40;;
20443;SDS011;10381;53.730;10.010;2024-03-08T15:47:50;24.27;;;11.77;;
20443;SDS011;10381;53.730;10.010;2024-03-08T15:51:50;24.38;;;10.68;;
20443;SDS011;10381;53.730;10.010;2024-03-08T15:55:51;27.87;;;13.80;;
20443;SDS011;10381;53.730;10.010;2024-03-08T15:59:51;35.00;;;15.27;;
20443;SDS011;10381;53.730;10.010;2024-03-08T16:03:51;33.67;;;14.43;;
20443;SDS011;10381;53.730;10.010;2024-03-08T16:07:52;38.97;;;14.43;;
20443;SDS011;10381;53.730;10.010;2024-03-08T16:11:54;39.03;;;13.98;;
20443;SDS011;10381;53.730;10.010;2024-03-08T16:15:58;33.53;;;15.27;;
20443;SDS011;10381;53.730;10.010;2024-03-08T16:19:58;34.97;;;14.82;;
20443;SDS011;10381;53.730;10.010;2024-03-08T16:23:59;34.60;;;14.30;;
20443;SDS011;10381;53.730;10.010;2024-03-08T16:28:00;42.17;;;15.77;;
20443;SDS011;10381;53.730;10.010;2024-03-08T16:32:00;37.70;;;16.02;;
20443;SDS011;10381;53.730;10.010;2024-03-08T16:36:00;42.73;;;14.17;;
20443;SDS011;10381;53.730;10.010;2024-03-08T16:40:02;37.63;;;16.83;;
20443;SDS011;10381;53.730;10.010;2024-03-08T16:44:04;43.28;;;15.75;;
20443;SDS011;10381;53.730;10.010;2024-03-08T16:48:05;39.10;;;16.70;;
20443;SDS011;10381;53.730;10.010;2024-03-08T16:52:05;38.67;;;16.27;;
20443;SDS011;10381;53.730;10.010;2024-03-08T16:56:06;48.60;;;15.95;;
20443;SDS011;10381;53.730;10.010;2024-03-08T17:00:06;30.98;;;13.25;;
20443;SDS011;10381;53.730;10.010;2024-03-08T17:04:09;32.88;;;15.10;;
20443;SDS011;10381;53.730;10.010;2024-03-08T17:08:09;28.87;;;14.30;;
20443;SDS011;10381;53.730;10.010;2024-03-08T17:12:10;24.48;;;12.88;;
20443;SDS011;10381;53.730;10.010;2024-03-08T17:16:11;42.78;;;15.75;;
20443;SDS011;10381;53.730;10.010;2024-03-08T17:20:12;33.20;;;13.73;;
20443;SDS011;10381;53.730;10.010;2024-03-08T17:24:15;28.17;;;14.18;;
20443;SDS011;10381;53.730;10.010;2024-03-08T17:28:16;46.15;;;13.07;;
20443;SDS011;10381;53.730;10.010;2024-03-08T17:32:17;39.40;;;13.07;;
20443;SDS011;10381;53.730;10.010;2024-03-08T17:36:18;32.55;;;12.73;;
20443;SDS011;10381;53.730;10.010;2024-03-08T17:40:19;38.40;;;15.00;;
20443;SDS011;10381;53.730;10.010;2024-03-08T17:44:23;34.08;;;14.25;;
20443;SDS011;10381;53.730;10.010;2024-03-08T17:48:25;45.50;;;15.57;;
20443;SDS011;10381;53.730;10.010;2024-03-08T17:52:25;41.67;;;16.15;;
20443;SDS011;10381;53.730;10.010;2024-03-08T17:56:25;37.77;;;16.40;;
20443;SDS011;10381;53.730;10.010;2024-03-08T18:00:26;30.85;;;14.32;;
20443;SDS011;10381;53.730;10.010;2024-03-08T18:04:32;28.05;;;12.68;;
20443;SDS011;10381;53.730;10.010;2024-03-08T18:08:32;29.50;;;13.40;;
20443;SDS011;10381;53.730;10.010;2024-03-08T18:12:32;38.10;;;15.97;;
20443;SDS011;10381;53.730;10.010;2024-03-08T18:16:33;36.28;;;16.05;;
20443;SDS011;10381;53.730;10.010;2024-03-08T18:20:36;44.07;;;15.33;;
20443;SDS011;10381;53.730;10.010;2024-03-08T18:24:46;30.92;;;14.85;;
20443;SDS011;10381;53.730;10.010;2024-03-08T18:28:47;38.08;;;14.70;;
20443;SDS011;10381;53.730;10.010;2024-03-08T18:32:48;39.40;;;14.68;;
20443;SDS011;10381;53.730;10.010;2024-03-08T18:36:48;36.10;;;16.30;;
20443;SDS011;10381;53.730;10.010;2024-03-08T18:40:50;37.97;;;15.18;;
20443;SDS011;10381;53.730;10.010;2024-03-08T18:44:50;35.27;;;14.87;;
20443;SDS011;10381;53.730;10.010;2024-03-08T18:48:51;40.22;;;16.13;;
20443;SDS011;10381;53.730;10.010;2024-03-08T18:52:52;34.90;;;14.57;;
20443;SDS011;10381;53.730;10.010;2024-03-08T18:56:52;36.30;;;16.02;;
20443;SDS011;10381;53.730;10.010;2024-03-08T19:00:54;30.77;;;14.27;;
20443;SDS011;10381;53.730;10.010;2024-03-08T19:04:55;25.43;;;13.87;;
20443;SDS011;10381;53.730;10.010;2024-03-08T19:08:58;45.00;;;16.02;;
20443;SDS011;10381;53.730;10.010;2024-03-08T19:13:04;37.33;;;15.07;;
20443;SDS011;10381;53.730;10.010;2024-03-08T19:17:05;40.63;;;15.90;;
20443;SDS011;10381;53.730;10.010;2024-03-08T19:21:12;29.58;;;14.38;;
20443;SDS011;10381;53.730;10.010;2024-03-08T19:25:14;32.80;;;15.33;;
20443;SDS011;10381;53.730;10.010;2024-03-08T19:29:17;39.50;;;17.30;;
20443;SDS011;10381;53.730;10.010;2024-03-08T19:33:20;51.33;;;17.33;;
20443;SDS011;10381;53.730;10.010;2024-03-08T19:37:21;33.55;;;16.15;;
20443;SDS011;10381;53.730;10.010;2024-03-08T19:41:21;56.20;;;20.47;;
20443;SDS011;10381;53.730;10.010;2024-03-08T19:45:23;63.97;;;20.52;;
20443;SDS011;10381;53.730;10.010;2024-03-08T19:49:27;51.17;;;20.88;;
20443;SDS011;10381;53.730;10.010;2024-03-08T19:53:27;66.57;;;23.07;;
20443;SDS011;10381;53.730;10.010;2024-03-08T19:57:28;42.88;;;18.98;;
20443;SDS011;10381;53.730;10.010;2024-03-08T20:01:31;40.70;;;17.48;;
20443;SDS011;10381;53.730;10.010;2024-03-08T20:05:32;47.42;;;19.45;;
20443;SDS011;10381;53.730;10.010;2024-03-08T20:09:34;38.42;;;18.13;;
20443;SDS011;10381;53.730;10.010;2024-03-08T20:13:36;44.65;;;17.65;;
20443;SDS011;10381;53.730;10.010;2024-03-08T20:17:37;42.55;;;18.92;;
20443;SDS011;10381;53.730;10.010;2024-03-08T20:21:39;39.65;;;19.23;;
20443;SDS011;10381;53.730;10.010;2024-03-08T20:25:39;32.33;;;17.33;;
20443;SDS011;10381;53.730;10.010;2024-03-08T20:29:44;43.20;;;17.38;;
20443;SDS011;10381;53.730;10.010;2024-03-08T20:33:46;41.35;;;18.63;;
20443;SDS011;10381;53.730;10.010;2024-03-08T20:37:47;36.35;;;17.80;;
20443;SDS011;10381;53.730;10.010;2024-03-08T20:41:48;42.08;;;18.30;;
20443;SDS011;10381;53.730;10.010;2024-03-08T20:45:49;36.95;;;16.95;;
20443;SDS011;10381;53.730;10.010;2024-03-08T20:49:49;35.92;;;18.95;;
20443;SDS011;10381;53.730;10.010;2024-03-08T20:53:51;38.03;;;19.70;;
20443;SDS011;10381;53.730;10.010;2024-03-08T20:57:54;49.85;;;19.80;;
20443;SDS011;10381;53.730;10.010;2024-03-08T21:01:54;37.17;;;17.73;;
20443;SDS011;10381;53.730;10.010;2024-03-08T21:05:54;37.97;;;17.30;;
20443;SDS011;10381;53.730;10.010;2024-03-08T21:09:55;33.28;;;18.38;;
20443;SDS011;10381;53.730;10.010;2024-03-08T21:13:55;39.33;;;19.10;;
20443;SDS011;10381;53.730;10.010;2024-03-08T21:17:56;30.77;;;16.60;;
20443;SDS011;10381;53.730;10.010;2024-03-08T21:21:57;40.72;;;17.63;;
20443;SDS011;10381;53.730;10.010;2024-03-08T21:25:58;61.30;;;19.20;;
20443;SDS011;10381;53.730;10.010;2024-03-08T21:29:58;35.43;;;17.63;;
20443;SDS011;10381;53.730;10.010;2024-03-08T21:33:59;39.25;;;18.73;;
20443;SDS011;10381;53.730;10.010;2024-03-08T21:38:00;45.83;;;18.65;;
20443;SDS011;10381;53.730;10.010;2024-03-08T21:42:01;36.92;;;19.08;;
20443;SDS011;10381;53.730;10.010;2024-03-08T21:46:03;38.63;;;19.05;;
20443;SDS011;10381;53.730;10.010;2024-03-08T21:50:04;40.40;;;18.58;;
20443;SDS011;10381;53.730;10.010;2024-03-08T21:54:05;37.70;;;19.10;;
20443;SDS011;10381;53.730;10.010;2024-03-08T21:58:06;32.10;;;18.98;;
20443;SDS011;10381;53.730;10.010;2024-03-08T22:02:07;34.67;;;18.48;;
20443;SDS011;10381;53.730;10.010;2024-03-08T22:06:08;43.22;;;18.70;;
20443;SDS011;10381;53.730;10.010;2024-03-08T22:10:11;34.55;;;19.83;;
20443;SDS011;10381;53.730;10.010;2024-03-08T22:14:21;35.85;;;18.67;;
20443;SDS011;10381;53.730;10.010;2024-03-08T22:18:23;38.72;;;18.35;;
20443;SDS011;10381;53.730;10.010;2024-03-08T22:22:24;29.17;;;18.73;;
20443;SDS011;10381;53.730;10.010;2024-03-08T22:26:25;35.60;;;19.02;;
20443;SDS011;10381;53.730;10.010;2024-03-08T22:30:26;34.90;;;16.95;;
20443;SDS011;10381;53.730;10.010;2024-03-08T22:34:26;49.85;;;17.42;;
20443;SDS011;10381;53.730;10.010;2024-03-08T22:38:26;29.38;;;16.15;;
20443;SDS011;10381;53.730;10.010;2024-03-08T22:42:27;32.15;;;18.42;;
20443;SDS011;10381;53.730;10.010;2024-03-08T22:46:28;37.80;;;20.03;;
20443;SDS011;10381;53.730;10.010;2024-03-08T22:50:28;32.20;;;17.13;;
20443;SDS011;10381;53.730;10.010;2024-03-08T22:54:30;41.78;;;19.50;;
20443;SDS011;10381;53.730;10.010;2024-03-08T22:58:33;39.13;;;17.80;;
20443;SDS011;10381;53.730;10.010;2024-03-08T23:02:33;32.33;;;17.70;;
20443;SDS011;10381;53.730;10.010;2024-03-08T23:06:34;34.57;;;17.70;;
20443;SDS011;10381;53.730;10.010;2024-03-08T23:10:35;32.42;;;17.77;;
20443;SDS011;10381;53.730;10.010;2024-03-08T23:14:38;34.47;;;16.85;;
20443;SDS011;10381;53.730;10.010;2024-03-08T23:18:39;33.30;;;17.35;;